sensor_id;sensor_type;location;lat;lon;timestamp;pressure;altitude;pressure_sealevel;temperature;humidity
3524;BME280;1776;53.330;11.498;2023-02-14T00:02:03;22721.09;;;-147.39;66.93
3524;BME280;1776;53.330;11.498;2023-02-14T00:04:29;22721.09;;;-147.39;66.96
3524;BME280;1776;53.330;11.498;2023-02-14T00:06:54;22576.78;;;-147.39;67.18
3524;BME280;1776;53.330;11.498;2023-02-14T00:09:19;22798.34;;;-147.39;67.04
3524;BME280;1776;53.330;11.498;2023-02-14T00:11:45;22633.69;;;-147.39;66.79
3524;BME280;1776;53.330;11.498;2023-02-14T00:14:11;22641.81;;;-147.39;66.84
3524;BME280;1776;53.330;11.498;2023-02-14T00:16:55;22574.75;;;-147.39;66.57
3524;BME280;1776;53.330;11.498;2023-02-14T00:19:22;22629.63;;;-147.39;66.76
3524;BME280;1776;53.330;11.498;2023-02-14T00:21:48;22544.25;;;-147.39;66.76
3524;BME280;1776;53.330;11.498;2023-02-14T00:24:24;22582.88;;;-147.39;67.10
3524;BME280;1776;53.330;11.498;2023-02-14T00:26:50;22593.03;;;-147.39;66.91
3524;BME280;1776;53.330;11.498;2023-02-14T00:29:19;22597.09;;;-147.39;66.73
3524;BME280;1776;53.330;11.498;2023-02-14T00:31:44;22615.41;;;-147.39;67.11
3524;BME280;1776;53.330;11.498;2023-02-14T00:34:10;22625.56;;;-147.39;67.14
3524;BME280;1776;53.330;11.498;2023-02-14T00:36:36;22580.84;;;-147.39;66.99
3524;BME280;1776;53.330;11.498;2023-02-14T00:39:03;22637.75;;;-147.39;67.01
3524;BME280;1776;53.330;11.498;2023-02-14T00:41:29;22672.31;;;-147.39;66.80
3524;BME280;1776;53.330;11.498;2023-02-14T00:43:54;22631.66;;;-147.39;66.78
3524;BME280;1776;53.330;11.498;2023-02-14T00:46:21;22595.06;;;-147.39;66.81
3524;BME280;1776;53.330;11.498;2023-02-14T00:48:46;22584.91;;;-147.39;66.84
3524;BME280;1776;53.330;11.498;2023-02-14T00:51:12;22597.09;;;-147.39;66.65
3524;BME280;1776;53.330;11.498;2023-02-14T00:53:38;22686.53;;;-147.39;66.87
3524;BME280;1776;53.330;11.498;2023-02-14T00:56:03;22804.44;;;-147.39;66.46
3524;BME280;1776;53.330;11.498;2023-02-14T00:58:29;22408.09;;;-147.39;66.69
3524;BME280;1776;53.330;11.498;2023-02-14T01:00:54;22615.41;;;-147.39;66.61
3524;BME280;1776;53.330;11.498;2023-02-14T01:03:20;22599.16;;;-147.39;66.64
3524;BME280;1776;53.330;11.498;2023-02-14T01:05:46;22745.47;;;-147.39;66.52
3524;BME280;1776;53.330;11.498;2023-02-14T01:08:12;22613.38;;;-147.39;66.73
3524;BME280;1776;53.330;11.498;2023-02-14T01:10:37;22686.53;;;-147.39;66.42
3524;BME280;1776;53.330;11.498;2023-02-14T01:13:03;22654.03;;;-147.39;66.42
3524;BME280;1776;53.330;11.498;2023-02-14T01:15:29;22603.22;;;-147.39;66.46
3524;BME280;1776;53.330;11.498;2023-02-14T01:17:54;22670.28;;;-147.39;66.66
3524;BME280;1776;53.330;11.498;2023-02-14T01:20:20;22672.31;;;-147.39;66.51
3524;BME280;1776;53.330;11.498;2023-02-14T01:22:45;22611.34;;;-147.39;66.74
3524;BME280;1776;53.330;11.498;2023-02-14T01:25:11;22619.47;;;-147.39;66.61
3524;BME280;1776;53.330;11.498;2023-02-14T01:27:37;22637.75;;;-147.39;66.55
3524;BME280;1776;53.330;11.498;2023-02-14T01:30:03;22745.47;;;-147.39;66.51
3524;BME280;1776;53.330;11.498;2023-02-14T01:32:30;22641.81;;;-147.39;66.76
3524;BME280;1776;53.330;11.498;2023-02-14T01:34:55;22643.84;;;-147.39;66.91
3524;BME280;1776;53.330;11.498;2023-02-14T01:37:20;22599.16;;;-147.39;67.35
3524;BME280;1776;53.330;11.498;2023-02-14T01:39:46;22597.09;;;-147.39;67.14
3524;BME280;1776;53.330;11.498;2023-02-14T01:42:11;22568.66;;;-147.39;67.05
3524;BME280;1776;53.330;11.498;2023-02-14T01:47:04;22584.91;;;-147.39;66.97
3524;BME280;1776;53.330;11.498;2023-02-14T01:49:36;22603.22;;;-147.39;66.84
3524;BME280;1776;53.330;11.498;2023-02-14T01:52:06;22593.03;;;-147.39;66.95
3524;BME280;1776;53.330;11.498;2023-02-14T01:54:35;22672.31;;;-147.39;66.73
3524;BME280;1776;53.330;11.498;2023-02-14T01:57:05;22652.00;;;-147.39;66.93
3524;BME280;1776;53.330;11.498;2023-02-14T01:59:38;22625.56;;;-147.39;66.78
3524;BME280;1776;53.330;11.498;2023-02-14T02:02:06;22627.59;;;-147.39;66.70
3524;BME280;1776;53.330;11.498;2023-02-14T02:04:36;22586.94;;;-147.39;66.97
3524;BME280;1776;53.330;11.498;2023-02-14T02:07:09;22586.94;;;-147.39;66.97
3524;BME280;1776;53.330;11.498;2023-02-14T02:09:52;22578.81;;;-147.39;67.01
3524;BME280;1776;53.330;11.498;2023-02-14T02:12:19;22623.53;;;-147.39;66.88
3524;BME280;1776;53.330;11.498;2023-02-14T02:14:46;22601.19;;;-147.39;66.95
3524;BME280;1776;53.330;11.498;2023-02-14T02:25:20;22556.47;;;-147.39;67.63
3524;BME280;1776;53.330;11.498;2023-02-14T02:31:02;22584.91;;;-147.39;67.59
3524;BME280;1776;53.330;11.498;2023-02-14T02:39:15;22530.03;;;-147.39;67.77
3524;BME280;1776;53.330;11.498;2023-02-14T02:50:39;22676.38;;;-147.39;67.42
3524;BME280;1776;53.330;11.498;2023-02-14T02:53:45;22599.16;;;-147.39;67.62
3524;BME280;1776;53.330;11.498;2023-02-14T02:56:21;22757.69;;;-147.39;67.55
3524;BME280;1776;53.330;11.498;2023-02-14T02:59:15;22656.06;;;-147.39;67.56
3524;BME280;1776;53.330;11.498;2023-02-14T03:01:57;22582.88;;;-147.39;67.39
3524;BME280;1776;53.330;11.498;2023-02-14T03:04:26;22607.28;;;-147.39;67.46
3524;BME280;1776;53.330;11.498;2023-02-14T03:07:11;22660.13;;;-147.39;67.42
3524;BME280;1776;53.330;11.498;2023-02-14T03:09:57;22595.06;;;-147.39;67.14
3524;BME280;1776;53.330;11.498;2023-02-14T03:20:37;22580.84;;;-147.39;67.75
3524;BME280;1776;53.330;11.498;2023-02-14T03:23:18;22619.47;;;-147.39;67.89
3524;BME280;1776;53.330;11.498;2023-02-14T03:28:27;22649.97;;;-147.39;67.80
3524;BME280;1776;53.330;11.498;2023-02-14T03:31:22;22649.97;;;-147.39;67.77
3524;BME280;1776;53.330;11.498;2023-02-14T03:33:57;22603.22;;;-147.39;67.67
3524;BME280;1776;53.330;11.498;2023-02-14T03:36:38;22544.25;;;-147.39;67.77
3524;BME280;1776;53.330;11.498;2023-02-14T03:39:09;22591.00;;;-147.39;67.84
3524;BME280;1776;53.330;11.498;2023-02-14T03:42:12;22554.44;;;-147.39;67.81
3524;BME280;1776;53.330;11.498;2023-02-14T03:44:39;22603.22;;;-147.39;67.93
3524;BME280;1776;53.330;11.498;2023-02-14T03:47:09;22597.09;;;-147.39;67.56
3524;BME280;1776;53.330;11.498;2023-02-14T03:49:39;22521.91;;;-147.39;67.68
3524;BME280;1776;53.330;11.498;2023-02-14T03:52:08;22593.03;;;-147.39;67.42
3524;BME280;1776;53.330;11.498;2023-02-14T03:54:35;22613.38;;;-147.39;67.65
3524;BME280;1776;53.330;11.498;2023-02-14T03:57:20;22601.19;;;-147.39;67.76
3524;BME280;1776;53.330;11.498;2023-02-14T03:59:47;22593.03;;;-147.39;67.90
3524;BME280;1776;53.330;11.498;2023-02-14T04:02:17;22570.69;;;-147.39;68.08
3524;BME280;1776;53.330;11.498;2023-02-14T04:04:47;22588.97;;;-147.39;68.05
3524;BME280;1776;53.330;11.498;2023-02-14T04:07:16;22540.19;;;-147.39;68.06
3524;BME280;1776;53.330;11.498;2023-02-14T04:09:42;22664.19;;;-147.39;68.12
3524;BME280;1776;53.330;11.498;2023-02-14T04:12:08;22566.63;;;-147.39;68.30
3524;BME280;1776;53.330;11.498;2023-02-14T04:14:33;22377.59;;;-147.39;67.90
3524;BME280;1776;53.330;11.498;2023-02-14T04:16:59;22548.34;;;-147.39;67.94
3524;BME280;1776;53.330;11.498;2023-02-14T04:19:43;22645.88;;;-147.39;67.90
3524;BME280;1776;53.330;11.498;2023-02-14T04:22:08;22603.22;;;-147.39;67.71
3524;BME280;1776;53.330;11.498;2023-02-14T04:24:33;22582.88;;;-147.39;67.86
3524;BME280;1776;53.330;11.498;2023-02-14T04:26:58;22611.34;;;-147.39;67.75
3524;BME280;1776;53.330;11.498;2023-02-14T04:29:47;22771.91;;;-147.39;68.20
3524;BME280;1776;53.330;11.498;2023-02-14T04:32:18;22593.03;;;-147.39;67.74
3524;BME280;1776;53.330;11.498;2023-02-14T04:34:44;22560.53;;;-147.39;67.75
3524;BME280;1776;53.330;11.498;2023-02-14T04:37:10;22552.41;;;-147.39;67.78
3524;BME280;1776;53.330;11.498;2023-02-14T04:39:36;22540.19;;;-147.39;67.88
3524;BME280;1776;53.330;11.498;2023-02-14T04:42:02;22566.63;;;-147.39;67.90
3524;BME280;1776;53.330;11.498;2023-02-14T04:44:28;22686.53;;;-147.39;67.84
3524;BME280;1776;53.330;11.498;2023-02-14T04:46:53;22584.91;;;-147.39;67.73
3524;BME280;1776;53.330;11.498;2023-02-14T04:49:19;22542.22;;;-147.39;67.61
3524;BME280;1776;53.330;11.498;2023-02-14T04:51:45;22259.72;;;-147.39;68.14
3524;BME280;1776;53.330;11.498;2023-02-14T04:54:10;22570.69;;;-147.39;68.17
3524;BME280;1776;53.330;11.498;2023-02-14T04:56:35;22556.47;;;-147.39;68.27
3524;BME280;1776;53.330;11.498;2023-02-14T04:59:01;22654.03;;;-147.39;68.55
3524;BME280;1776;53.330;11.498;2023-02-14T05:01:26;22558.50;;;-147.39;68.36
3524;BME280;1776;53.330;11.498;2023-02-14T05:03:51;22556.47;;;-147.39;68.64
3524;BME280;1776;53.330;11.498;2023-02-14T05:06:17;22584.91;;;-147.39;68.20
3524;BME280;1776;53.330;11.498;2023-02-14T05:08:42;22605.25;;;-147.39;68.44
3524;BME280;1776;53.330;11.498;2023-02-14T05:11:07;22542.22;;;-147.39;68.52
3524;BME280;1776;53.330;11.498;2023-02-14T05:13:32;22525.97;;;-147.39;68.53
3524;BME280;1776;53.330;11.498;2023-02-14T05:15:58;22601.19;;;-147.39;68.40
3524;BME280;1776;53.330;11.498;2023-02-14T05:18:23;22712.97;;;-147.39;68.53
3524;BME280;1776;53.330;11.498;2023-02-14T05:20:49;22523.94;;;-147.39;68.39
3524;BME280;1776;53.330;11.498;2023-02-14T05:23:15;22528.00;;;-147.39;68.55
3524;BME280;1776;53.330;11.498;2023-02-14T05:25:41;22560.53;;;-147.39;68.54
3524;BME280;1776;53.330;11.498;2023-02-14T05:28:07;22588.97;;;-147.39;68.85
3524;BME280;1776;53.330;11.498;2023-02-14T05:30:32;22511.75;;;-147.39;68.93
3524;BME280;1776;53.330;11.498;2023-02-14T05:32:59;22521.91;;;-147.39;68.87
3524;BME280;1776;53.330;11.498;2023-02-14T05:35:24;22548.34;;;-147.39;69.10
3524;BME280;1776;53.330;11.498;2023-02-14T05:37:49;22588.97;;;-147.39;69.21
3524;BME280;1776;53.330;11.498;2023-02-14T05:40:15;22125.59;;;-147.39;68.60
3524;BME280;1776;53.330;11.498;2023-02-14T05:42:41;22660.13;;;-147.39;68.67
3524;BME280;1776;53.330;11.498;2023-02-14T05:45:07;22530.03;;;-147.39;69.02
3524;BME280;1776;53.330;11.498;2023-02-14T05:47:32;22566.63;;;-147.39;68.96
3524;BME280;1776;53.330;11.498;2023-02-14T05:49:58;22523.94;;;-147.39;69.33
3524;BME280;1776;53.330;11.498;2023-02-14T05:52:23;22532.06;;;-147.39;68.99
3524;BME280;1776;53.330;11.498;2023-02-14T05:54:48;22532.06;;;-147.39;68.96
3524;BME280;1776;53.330;11.498;2023-02-14T05:57:15;22534.09;;;-147.39;68.90
3524;BME280;1776;53.330;11.498;2023-02-14T05:59:40;22546.31;;;-147.39;68.43
3524;BME280;1776;53.330;11.498;2023-02-14T06:02:06;22562.56;;;-147.39;68.76
3524;BME280;1776;53.330;11.498;2023-02-14T06:04:31;22546.31;;;-147.39;68.56
3524;BME280;1776;53.330;11.498;2023-02-14T06:06:56;21991.47;;;-147.39;68.32
3524;BME280;1776;53.330;11.498;2023-02-14T06:09:21;22546.31;;;-147.39;67.98
3524;BME280;1776;53.330;11.498;2023-02-14T06:11:47;22566.63;;;-147.39;68.72
3524;BME280;1776;53.330;11.498;2023-02-14T06:14:12;22597.09;;;-147.39;68.17
3524;BME280;1776;53.330;11.498;2023-02-14T06:16:37;22576.78;;;-147.39;68.03
3524;BME280;1776;53.330;11.498;2023-02-14T06:19:03;22656.06;;;-147.39;68.79
3524;BME280;1776;53.330;11.498;2023-02-14T06:21:28;22558.50;;;-147.39;68.63
3524;BME280;1776;53.330;11.498;2023-02-14T06:23:53;22532.06;;;-147.39;68.29
3524;BME280;1776;53.330;11.498;2023-02-14T06:26:18;22560.53;;;-147.39;68.18
3524;BME280;1776;53.330;11.498;2023-02-14T06:28:44;22558.50;;;-147.39;68.26
3524;BME280;1776;53.330;11.498;2023-02-14T06:31:15;22641.81;;;-147.39;68.12
3524;BME280;1776;53.330;11.498;2023-02-14T06:33:40;22568.66;;;-147.39;68.08
3524;BME280;1776;53.330;11.498;2023-02-14T06:36:06;22658.09;;;-147.39;68.36
3524;BME280;1776;53.330;11.498;2023-02-14T06:38:31;22558.50;;;-147.39;68.42
3524;BME280;1776;53.330;11.498;2023-02-14T06:41:02;22566.63;;;-147.39;68.62
3524;BME280;1776;53.330;11.498;2023-02-14T06:43:27;22597.09;;;-147.39;68.68
3524;BME280;1776;53.330;11.498;2023-02-14T06:45:53;22619.47;;;-147.39;68.17
3524;BME280;1776;53.330;11.498;2023-02-14T06:48:18;22505.66;;;-147.39;68.22
3524;BME280;1776;53.330;11.498;2023-02-14T06:50:45;22615.41;;;-147.39;68.17
3524;BME280;1776;53.330;11.498;2023-02-14T06:53:10;22536.13;;;-147.39;68.39
3524;BME280;1776;53.330;11.498;2023-02-14T06:55:36;22560.53;;;-147.39;68.36
3524;BME280;1776;53.330;11.498;2023-02-14T06:58:01;22698.75;;;-147.39;68.03
3524;BME280;1776;53.330;11.498;2023-02-14T07:00:26;22609.31;;;-147.39;68.32
3524;BME280;1776;53.330;11.498;2023-02-14T07:02:51;22605.25;;;-147.39;67.94
3524;BME280;1776;53.330;11.498;2023-02-14T07:05:17;22576.78;;;-147.39;68.43
3524;BME280;1776;53.330;11.498;2023-02-14T07:07:43;22686.53;;;-147.39;68.42
3524;BME280;1776;53.330;11.498;2023-02-14T07:10:08;22631.66;;;-147.39;68.81
3524;BME280;1776;53.330;11.498;2023-02-14T07:12:34;22558.50;;;-147.39;68.51
3524;BME280;1776;53.330;11.498;2023-02-14T07:14:59;22584.91;;;-147.39;68.40
3524;BME280;1776;53.330;11.498;2023-02-14T07:17:24;22611.34;;;-147.39;68.23
3524;BME280;1776;53.330;11.498;2023-02-14T07:19:50;22580.84;;;-147.39;68.20
3524;BME280;1776;53.330;11.498;2023-02-14T07:22:15;22619.47;;;-147.39;68.49
3524;BME280;1776;53.330;11.498;2023-02-14T07:24:40;22584.91;;;-147.39;68.49
3524;BME280;1776;53.330;11.498;2023-02-14T07:27:06;22595.06;;;-147.39;68.45
3524;BME280;1776;53.330;11.498;2023-02-14T07:29:31;22680.44;;;-147.39;68.33
3524;BME280;1776;53.330;11.498;2023-02-14T07:31:57;22656.06;;;-147.39;68.54
3524;BME280;1776;53.330;11.498;2023-02-14T07:34:22;22704.84;;;-147.39;68.20
3524;BME280;1776;53.330;11.498;2023-02-14T07:36:47;22609.31;;;-147.39;68.41
3524;BME280;1776;53.330;11.498;2023-02-14T07:39:13;22601.19;;;-147.39;68.20
3524;BME280;1776;53.330;11.498;2023-02-14T07:41:38;22544.25;;;-147.39;68.15
3524;BME280;1776;53.330;11.498;2023-02-14T07:44:03;22698.75;;;-147.39;67.81
3524;BME280;1776;53.330;11.498;2023-02-14T07:46:29;22580.84;;;-147.39;67.77
3524;BME280;1776;53.330;11.498;2023-02-14T07:48:54;22609.31;;;-147.39;68.10
3524;BME280;1776;53.330;11.498;2023-02-14T07:51:19;22542.22;;;-147.39;68.00
3524;BME280;1776;53.330;11.498;2023-02-14T07:53:44;22629.63;;;-147.39;68.10
3524;BME280;1776;53.330;11.498;2023-02-14T07:56:10;22607.28;;;-147.39;68.55
3524;BME280;1776;53.330;11.498;2023-02-14T07:58:35;22566.63;;;-147.39;68.93
3524;BME280;1776;53.330;11.498;2023-02-14T08:01:00;22601.19;;;-147.39;68.93
3524;BME280;1776;53.330;11.498;2023-02-14T08:03:26;22560.53;;;-147.39;69.23
3524;BME280;1776;53.330;11.498;2023-02-14T08:05:51;22528.00;;;-147.39;69.54
3524;BME280;1776;53.330;11.498;2023-02-14T08:08:23;22739.38;;;-147.39;69.19
3524;BME280;1776;53.330;11.498;2023-02-14T08:10:48;22536.13;;;-147.39;68.87
3524;BME280;1776;53.330;11.498;2023-02-14T08:13:13;22568.66;;;-147.39;68.17
3524;BME280;1776;53.330;11.498;2023-02-14T08:15:39;22564.59;;;-147.39;68.53
3524;BME280;1776;53.330;11.498;2023-02-14T08:18:22;22542.22;;;-147.39;68.57
3524;BME280;1776;53.330;11.498;2023-02-14T08:20:48;22560.53;;;-147.39;68.52
3524;BME280;1776;53.330;11.498;2023-02-14T08:23:17;22591.00;;;-147.39;68.09
3524;BME280;1776;53.330;11.498;2023-02-14T08:25:43;22574.75;;;-147.39;68.54
3524;BME280;1776;53.330;11.498;2023-02-14T08:28:08;22595.06;;;-147.39;67.63
3524;BME280;1776;53.330;11.498;2023-02-14T08:30:37;22595.06;;;-147.39;67.75
3524;BME280;1776;53.330;11.498;2023-02-14T08:33:03;22591.00;;;-147.39;67.35
3524;BME280;1776;53.330;11.498;2023-02-14T08:35:29;22593.03;;;-147.39;67.34
3524;BME280;1776;53.330;11.498;2023-02-14T08:37:54;22586.94;;;-147.39;67.94
3524;BME280;1776;53.330;11.498;2023-02-14T08:40:19;22682.47;;;-147.39;67.31
3524;BME280;1776;53.330;11.498;2023-02-14T08:42:45;22334.94;;;-147.39;67.40
3524;BME280;1776;53.330;11.498;2023-02-14T08:45:10;22599.16;;;-147.39;67.43
3524;BME280;1776;53.330;11.498;2023-02-14T08:47:36;22735.31;;;-147.39;67.27
3524;BME280;1776;53.330;11.498;2023-02-14T08:50:04;22637.75;;;-147.39;67.68
3524;BME280;1776;53.330;11.498;2023-02-14T08:52:30;22649.97;;;-147.39;67.99
3524;BME280;1776;53.330;11.498;2023-02-14T08:54:55;22582.88;;;-147.39;67.43
3524;BME280;1776;53.330;11.498;2023-02-14T08:57:21;22607.28;;;-147.39;67.81
3524;BME280;1776;53.330;11.498;2023-02-14T08:59:46;22637.75;;;-147.39;67.94
3524;BME280;1776;53.330;11.498;2023-02-14T09:02:12;22568.66;;;-147.39;67.82
3524;BME280;1776;53.330;11.498;2023-02-14T09:04:38;22692.63;;;-147.39;67.71
3524;BME280;1776;53.330;11.498;2023-02-14T09:07:03;22595.06;;;-147.39;67.58
3524;BME280;1776;53.330;11.498;2023-02-14T09:09:30;22607.28;;;-147.39;67.27
3524;BME280;1776;53.330;11.498;2023-02-14T09:11:55;21869.53;;;-147.39;67.50
3524;BME280;1776;53.330;11.498;2023-02-14T09:14:21;22684.50;;;-147.39;66.95
3524;BME280;1776;53.330;11.498;2023-02-14T09:16:48;22605.25;;;-147.39;66.78
3524;BME280;1776;53.330;11.498;2023-02-14T09:19:13;22652.00;;;-147.39;66.73
3524;BME280;1776;53.330;11.498;2023-02-14T09:21:39;22806.47;;;-147.39;66.38
3524;BME280;1776;53.330;11.498;2023-02-14T09:24:04;22674.34;;;-147.39;66.03
3524;BME280;1776;53.330;11.498;2023-02-14T09:26:29;22647.91;;;-147.39;66.52
3524;BME280;1776;53.330;11.498;2023-02-14T09:28:55;22690.59;;;-147.39;66.15
3524;BME280;1776;53.330;11.498;2023-02-14T09:31:22;22330.88;;;-147.39;65.93
3524;BME280;1776;53.330;11.498;2023-02-14T09:33:48;22631.66;;;-147.39;66.18
3524;BME280;1776;53.330;11.498;2023-02-14T09:36:14;22647.91;;;-147.39;66.17
3524;BME280;1776;53.330;11.498;2023-02-14T09:38:58;22708.91;;;-147.39;65.87
3524;BME280;1776;53.330;11.498;2023-02-14T09:44:00;22936.56;;;-147.39;61.67
3524;BME280;1776;53.330;11.498;2023-02-14T09:46:28;23723.28;;;-147.39;53.04
3524;BME280;1776;53.330;11.498;2023-02-14T09:48:54;24457.28;;;-147.39;47.84
3524;BME280;1776;53.330;11.498;2023-02-14T09:51:23;24821.28;;;-147.39;46.17
3524;BME280;1776;53.330;11.498;2023-02-14T09:54:01;25148.72;;;-147.39;42.73
3524;BME280;1776;53.330;11.498;2023-02-14T09:56:36;25215.84;;;-147.39;42.94
3524;BME280;1776;53.330;11.498;2023-02-14T09:59:14;25366.34;;;-147.39;42.00
3524;BME280;1776;53.330;11.498;2023-02-14T10:01:44;25478.22;;;-147.39;40.46
3524;BME280;1776;53.330;11.498;2023-02-14T10:04:24;25854.50;;;-147.39;40.17
3524;BME280;1776;53.330;11.498;2023-02-14T10:07:26;25508.72;;;-147.39;41.46
3524;BME280;1776;53.330;11.498;2023-02-14T10:10:35;25573.81;;;-147.39;41.31
3524;BME280;1776;53.330;11.498;2023-02-14T10:13:12;25569.75;;;-147.39;42.15
3524;BME280;1776;53.330;11.498;2023-02-14T10:15:43;25492.44;;;-147.39;42.15
3524;BME280;1776;53.330;11.498;2023-02-14T10:18:31;25341.94;;;-147.39;44.63
3524;BME280;1776;53.330;11.498;2023-02-14T10:20:59;25350.06;;;-147.39;44.14
3524;BME280;1776;53.330;11.498;2023-02-14T10:26:13;25124.31;;;-147.39;46.93
3524;BME280;1776;53.330;11.498;2023-02-14T10:28:45;25236.16;;;-147.39;47.15
3524;BME280;1776;53.330;11.498;2023-02-14T10:31:21;25114.13;;;-147.39;46.70
3524;BME280;1776;53.330;11.498;2023-02-14T10:34:00;25091.78;;;-147.39;47.52
3524;BME280;1776;53.330;11.498;2023-02-14T10:36:51;25116.19;;;-147.39;47.05
3524;BME280;1776;53.330;11.498;2023-02-14T10:42:31;24892.47;;;-147.39;48.21
3524;BME280;1776;53.330;11.498;2023-02-14T10:45:17;24939.25;;;-147.39;48.59
3524;BME280;1776;53.330;11.498;2023-02-14T10:47:53;24870.09;;;-147.39;51.52
3524;BME280;1776;53.330;11.498;2023-02-14T10:50:26;24892.47;;;-147.39;48.42
3524;BME280;1776;53.330;11.498;2023-02-14T10:53:14;24918.91;;;-147.39;47.97
3524;BME280;1776;53.330;11.498;2023-02-14T10:55:50;24868.06;;;-147.39;50.19
3524;BME280;1776;53.330;11.498;2023-02-14T10:58:20;24829.41;;;-147.39;49.97
3524;BME280;1776;53.330;11.498;2023-02-14T11:01:11;24788.75;;;-147.39;50.01
3524;BME280;1776;53.330;11.498;2023-02-14T11:03:39;24823.31;;;-147.39;50.55
3524;BME280;1776;53.330;11.498;2023-02-14T11:06:06;24835.53;;;-147.39;50.98
3524;BME280;1776;53.330;11.498;2023-02-14T11:08:34;24802.97;;;-147.39;50.86
3524;BME280;1776;53.330;11.498;2023-02-14T11:13:38;24961.59;;;-147.39;50.41
3524;BME280;1776;53.330;11.498;2023-02-14T11:16:06;24833.50;;;-147.39;50.36
3524;BME280;1776;53.330;11.498;2023-02-14T11:18:33;24937.19;;;-147.39;49.91
3524;BME280;1776;53.330;11.498;2023-02-14T11:23:40;24888.41;;;-147.39;50.88
3524;BME280;1776;53.330;11.498;2023-02-14T11:26:10;24876.19;;;-147.39;51.40
3524;BME280;1776;53.330;11.498;2023-02-14T11:28:45;25016.53;;;-147.39;52.47
3524;BME280;1776;53.330;11.498;2023-02-14T11:31:11;24931.09;;;-147.39;49.87
3524;BME280;1776;53.330;11.498;2023-02-14T11:33:39;24927.03;;;-147.39;49.16
3524;BME280;1776;53.330;11.498;2023-02-14T11:36:11;24931.09;;;-147.39;50.17
3524;BME280;1776;53.330;11.498;2023-02-14T11:38:38;24967.72;;;-147.39;48.81
3524;BME280;1776;53.330;11.498;2023-02-14T11:41:07;24973.81;;;-147.39;48.79
3524;BME280;1776;53.330;11.498;2023-02-14T11:49:03;24981.94;;;-147.39;49.02
3524;BME280;1776;53.330;11.498;2023-02-14T11:51:35;25016.53;;;-147.39;49.04
3524;BME280;1776;53.330;11.498;2023-02-14T11:54:02;25006.34;;;-147.39;48.21
3524;BME280;1776;53.330;11.498;2023-02-14T11:59:11;24908.72;;;-147.39;48.53
3524;BME280;1776;53.330;11.498;2023-02-14T12:01:39;24920.94;;;-147.39;48.81
3524;BME280;1776;53.330;11.498;2023-02-14T12:04:17;24963.63;;;-147.39;48.92
3524;BME280;1776;53.330;11.498;2023-02-14T12:06:43;24973.81;;;-147.39;48.90
3524;BME280;1776;53.330;11.498;2023-02-14T12:14:23;25051.09;;;-147.39;47.20
3524;BME280;1776;53.330;11.498;2023-02-14T12:16:57;25272.78;;;-147.39;47.31
3524;BME280;1776;53.330;11.498;2023-02-14T12:19:41;24766.38;;;-147.39;49.32
3524;BME280;1776;53.330;11.498;2023-02-14T12:22:13;24483.72;;;-147.39;48.10
3524;BME280;1776;53.330;11.498;2023-02-14T12:27:21;25024.66;;;-147.39;47.84
3524;BME280;1776;53.330;11.498;2023-02-14T12:30:01;25049.06;;;-147.39;47.92
3524;BME280;1776;53.330;11.498;2023-02-14T12:32:29;25106.00;;;-147.39;47.92
3524;BME280;1776;53.330;11.498;2023-02-14T12:37:47;24920.94;;;-147.39;45.94
3524;BME280;1776;53.330;11.498;2023-02-14T12:43:19;25118.22;;;-147.39;46.88
3524;BME280;1776;53.330;11.498;2023-02-14T12:49:28;25219.91;;;-147.39;44.94
3524;BME280;1776;53.330;11.498;2023-02-14T12:55:15;25226.00;;;-147.39;45.52
3524;BME280;1776;53.330;11.498;2023-02-14T12:57:53;25211.75;;;-147.39;47.13
3524;BME280;1776;53.330;11.498;2023-02-14T13:00:47;25173.13;;;-147.39;45.14
3524;BME280;1776;53.330;11.498;2023-02-14T13:06:52;25164.97;;;-147.39;45.73
3524;BME280;1776;53.330;11.498;2023-02-14T13:15:12;25234.13;;;-147.39;44.75
3524;BME280;1776;53.330;11.498;2023-02-14T13:17:37;25173.13;;;-147.39;45.02
3524;BME280;1776;53.330;11.498;2023-02-14T13:20:33;25106.00;;;-147.39;45.43
3524;BME280;1776;53.330;11.498;2023-02-14T13:23:04;25122.28;;;-147.39;45.75
3524;BME280;1776;53.330;11.498;2023-02-14T13:25:41;25142.63;;;-147.39;46.90
3524;BME280;1776;53.330;11.498;2023-02-14T13:28:13;25138.53;;;-147.39;46.01
3524;BME280;1776;53.330;11.498;2023-02-14T13:30:39;25124.31;;;-147.39;46.37
3524;BME280;1776;53.330;11.498;2023-02-14T13:33:22;25114.13;;;-147.39;46.70
3524;BME280;1776;53.330;11.498;2023-02-14T13:35:48;25242.28;;;-147.39;46.72
3524;BME280;1776;53.330;11.498;2023-02-14T13:38:16;25154.81;;;-147.39;46.93
3524;BME280;1776;53.330;11.498;2023-02-14T13:40:43;25030.75;;;-147.39;47.52
3524;BME280;1776;53.330;11.498;2023-02-14T13:43:09;25075.50;;;-147.39;47.89
3524;BME280;1776;53.330;11.498;2023-02-14T13:48:26;25134.47;;;-147.39;46.37
3524;BME280;1776;53.330;11.498;2023-02-14T13:50:55;25136.50;;;-147.39;46.35
3524;BME280;1776;53.330;11.498;2023-02-14T13:53:44;25179.22;;;-147.39;47.18
3524;BME280;1776;53.330;11.498;2023-02-14T13:58:35;25144.66;;;-147.39;45.73
3524;BME280;1776;53.330;11.498;2023-02-14T14:03:55;25258.53;;;-147.39;46.19
3524;BME280;1776;53.330;11.498;2023-02-14T14:06:21;25189.38;;;-147.39;45.54
3524;BME280;1776;53.330;11.498;2023-02-14T14:08:49;25264.66;;;-147.39;45.84
3524;BME280;1776;53.330;11.498;2023-02-14T14:16:56;25266.69;;;-147.39;45.46
3524;BME280;1776;53.330;11.498;2023-02-14T14:22:23;25183.28;;;-147.39;45.11
3524;BME280;1776;53.330;11.498;2023-02-14T14:24:54;25177.19;;;-147.39;46.59
3524;BME280;1776;53.330;11.498;2023-02-14T14:27:31;25162.94;;;-147.39;45.85
3524;BME280;1776;53.330;11.498;2023-02-14T14:29:59;25230.06;;;-147.39;46.08
3524;BME280;1776;53.330;11.498;2023-02-14T14:32:36;24892.47;;;-147.39;46.33
3524;BME280;1776;53.330;11.498;2023-02-14T14:40:28;25158.88;;;-147.39;46.19
3524;BME280;1776;53.330;11.498;2023-02-14T14:43:00;25148.72;;;-147.39;46.34
3524;BME280;1776;53.330;11.498;2023-02-14T14:45:29;25160.91;;;-147.39;46.75
3524;BME280;1776;53.330;11.498;2023-02-14T14:47:59;25103.97;;;-147.39;46.47
3524;BME280;1776;53.330;11.498;2023-02-14T14:50:29;25116.19;;;-147.39;46.10
3524;BME280;1776;53.330;11.498;2023-02-14T14:53:04;25061.25;;;-147.39;46.24
3524;BME280;1776;53.330;11.498;2023-02-14T14:55:32;25051.09;;;-147.39;48.08